Willowick, Ohio
Current Conditions -  °F | °C
As of 3:15 PM on Sunday 25 Jan 2015 (Local Time) from KLNN Reporting Station
Overcast Overcast  
Wind Chill: 13°   Ceiling: 3600
Heat Index: 23°   Visibility: 10mi
Dew Point: 17°   Wind: 9mph
Humidity: 77%   Direction: 80°E
Pressure: 29.86"   Gusts: NA
Location:  41.64°N, 81.47°W
Report Text: KLNN 252015Z AUTO 08008KT 10SM BKN036 BKN045 OVC055 M05/M09 A2986 RMK AO1 T10521086
Loading
Personal Weather Stations






























Interactive Weather Map New forecast layout! Learn more

10-Day Weather Forecast

Advertisements
Track Severe Weather on mobile